This is the latest recevied weather packets stored in our database for station/object PP5EO-15. If no packets are shown the sender has not sent any weather packets the latest 1 day(s).
| Time | Temp. | Humidity | Pressure | Rain* | Wind** | Luminosity | Snow |
|---|---|---|---|---|---|---|---|
| 1778093117 | 39.44° C | 32% | 1015.1 hPa | - | - | - | - |
| 1778092523 | 40.56° C | 30% | 1015.1 hPa | - | - | - | - |
| 1778091332 | 41.67° C | 28% | 1015.4 hPa | - | - | - | - |
| 1778089547 | 42.78° C | 27% | 1015.7 hPa | - | - | - | - |
| 1778088360 | 42.22° C | 28% | 1015.7 hPa | - | - | - | - |
| 1778087762 | 41.67° C | 28% | 1015.8 hPa | - | - | - | - |
| 1778085977 | 42.78° C | 26% | 1016.1 hPa | - | - | - | - |
| 1778083002 | 42.22° C | 27% | 1017.1 hPa | - | - | - | - |
| 1778081217 | 41.67° C | 27% | 1017.7 hPa | - | - | - | - |
| 1778079432 | 43.33° C | 25% | 1018.4 hPa | - | - | - | - |
| 1778077647 | 40.56° C | 30% | 1018.9 hPa | - | - | - | - |
| 1778075268 | 35.56° C | 39% | 1019.4 hPa | - | - | - | - |
| 1778072292 | 33.33° C | 43% | 1019.6 hPa | - | - | - | - |
| 1778070507 | 33.33° C | 44% | 1019.8 hPa | - | - | - | - |
| 1778068722 | 32.78° C | 46% | 1019.6 hPa | - | - | - | - |
| 1778066937 | 31.11° C | 48% | 1019.5 hPa | - | - | - | - |
| 1778065152 | 30.56° C | 50% | 1019.1 hPa | - | - | - | - |
| 1778063962 | 30° C | 51% | 1018.9 hPa | - | - | - | - |
| 1778063370 | 30° C | 51% | 1018.8 hPa | - | - | - | - |
| 1778062104 | 29.44° C | 51% | 1018.7 hPa | - | - | - | - |
| 1778060914 | 29.44° C | 52% | 1018.5 hPa | - | - | - | - |
| 1778059724 | 29.44° C | 52% | 1018.2 hPa | - | - | - | - |
| 1778057939 | 29.44° C | 52% | 1018 hPa | - | - | - | - |
| 1778056154 | 29.44° C | 52% | 1017.7 hPa | - | - | - | - |
| 1778055559 | 29.44° C | 53% | 1017.6 hPa | - | - | - | - |
* Rain since midnight (hover to see other rain measurements)
** Current wind speed in m/s (hover to see current wind gust speed)